Northern Highway — 3EVE6 — position and weather

sailwx.info

Track history (hours):
 
Tides and Currents Weather Stations Pressure Air Temp Water Temp Dewpoint Dewpoint Depression Visibility Wind Speed Wind Dir Waves Ship Positions

Northern Highway

Last reported at 2014-Jul-28 04:31 UTC. Time now 2014-Jul-30 00:58 UTC.
Position N 36°33' W 129°31'.

Length 188 m; draft 7.3 m.

Type: Cargo ship. MMSI: 371608000.

Date/timePositionNaut miles runAvg speedWind from/ knotsBaromVisibWave heightAir tempDewpointWater temp
2014-Jul-28 04:31N 36°33' W 129°31'6716.8
2014-Jul-28 00:31N 35°60' W 128°19'1616.4
2014-Jul-27 23:33N 35°52' W 128°02'1816.5
2014-Jul-27 22:27N 35°43' W 127°43'1516.6
2014-Jul-27 21:33N 35°35' W 127°27'1716.6
2014-Jul-27 20:33N 35°26' W 127°10'1616.3
2014-Jul-27 19:33N 35°18' W 126°52'1616.1
2014-Jul-27 18:33N 35°10' W 126°35'1616.3
2014-Jul-27 17:33N 35°01' W 126°19'1616.2
2014-Jul-27 16:33N 34°52' W 126°02'1616.1
2014-Jul-27 15:33N 34°44' W 125°45'1716.2
2014-Jul-27 14:31N 34°35' W 125°27'1515.7
2014-Jul-27 13:33N 34°30' W 125°10'1716.7
2014-Jul-27 12:33N 34°30' W 124°50'1716.6
2014-Jul-27 11:33N 34°30' W 124°30'1716.8
2014-Jul-27 10:33N 34°30' W 124°09'2017.1
2014-Jul-27 09:22N 34°30' W 123°45'1417.2
2014-Jul-27 08:33N 34°30' W 123°28'1717.0
2014-Jul-27 07:33N 34°30' W 123°07'1716.9
2014-Jul-27 06:33N 34°30' W 122°47'1717.0
2014-Jul-27 05:33N 34°30' W 122°26'1716.7
2014-Jul-27 04:33N 34°30' W 122°06'1616.5
2014-Jul-27 03:34N 34°30' W 121°46'1716.4
2014-Jul-27 02:31N 34°30' W 121°25'1716.2
2014-Jul-27 01:28N 34°29' W 121°05'1516.0
2014-Jul-27 00:33N 34°25' W 120°48'1616.0
2014-Jul-26 23:33N 34°21' W 120°29'1716.8
2014-Jul-26 22:34N 34°17' W 120°09'1616.4
2014-Jul-26 21:33N 34°12' W 119°50'1716.7
2014-Jul-26 20:33N 34°08' W 119°31'1414.0
2014-Jul-26 19:33N 34°08' W 119°14'2 1.7
2014-Jul-26 18:32N 34°09' W 119°12'0 0.0
2014-Jul-26 17:32N 34°09' W 119°12'0 0.0
2014-Jul-26 16:32N 34°09' W 119°12'0 0.0
2014-Jul-26 15:32N 34°09' W 119°12'0 0.0
2014-Jul-26 14:32N 34°09' W 119°12'0 0.0
2014-Jul-26 13:32N 34°09' W 119°12'0 0.0
2014-Jul-26 12:33N 34°09' W 119°12'2 1.7
2014-Jul-26 11:31N 34°07' W 119°13'0 0.1
2014-Jul-26 10:31N 34°07' W 119°13'0 0.0
2014-Jul-26 09:31N 34°07' W 119°13'0 0.0
2014-Jul-26 08:31N 34°07' W 119°13'0 0.0
2014-Jul-26 07:31N 34°07' W 119°13'0 0.0
2014-Jul-26 06:25N 34°07' W 119°13'0 0.1
2014-Jul-26 05:28N 34°07' W 119°13'0 0.1
2014-Jul-26 04:31N 34°07' W 119°13'0 0.0
2014-Jul-26 03:31N 34°07' W 119°13'0 0.0
2014-Jul-26 02:31N 34°07' W 119°13'0 0.0
2014-Jul-26 01:31N 34°07' W 119°13'0 0.0
2014-Jul-26 00:31N 34°07' W 119°13'6 6.4
2014-Jul-25 23:33N 34°02' W 119°09'1311.3
2014-Jul-25 22:25N 33°55' W 118°56'1011.3
2014-Jul-25 21:33N 33°50' W 118°46'1111.2
2014-Jul-25 20:33N 33°45' W 118°34'1111.2
2014-Jul-25 19:33N 33°39' W 118°22'9 8.8
2014-Jul-25 18:33N 33°41' W 118°12'4 3.5
2014-Jul-25 17:33N 33°44' W 118°13'0 0.0
2014-Jul-25 16:33N 33°44' W 118°13'0 0.0
2014-Jul-25 15:33N 33°44' W 118°13'0 0.0
2014-Jul-25 14:33N 33°44' W 118°13'0 0.0
2014-Jul-25 13:33N 33°44' W 118°13'0 0.0
2014-Jul-25 12:33N 33°44' W 118°13'0 0.0
2014-Jul-25 11:30N 33°44' W 118°13'0 0.0
2014-Jul-25 10:33N 33°44' W 118°13'0 0.1
2014-Jul-25 09:33N 33°44' W 118°13'0 0.0
2014-Jul-25 08:33N 33°44' W 118°13'0 0.0
2014-Jul-25 07:30N 33°44' W 118°13'0 0.0
2014-Jul-25 06:30N 33°44' W 118°13'0 0.0
2014-Jul-25 05:30N 33°44' W 118°13'0 0.1
2014-Jul-25 04:33N 33°44' W 118°13'0 0.0
2014-Jul-25 03:33N 33°44' W 118°13'0 0.0
2014-Jul-25 02:33N 33°44' W 118°13'0 0.0
2014-Jul-25 01:33N 33°44' W 118°13'0 0.1
2014-Jul-25 00:33N 33°44' W 118°13'0 0.1
2014-Jul-24 23:33N 33°44' W 118°13'0 0.0
2014-Jul-24 22:33N 33°44' W 118°13'0 0.2
2014-Jul-24 21:33N 33°44' W 118°13'7 6.9
2014-Jul-24 20:33N 33°37' W 118°10'9 8.5
2014-Jul-24 19:33N 33°29' W 118°07'8 8.2
2014-Jul-24 18:33N 33°22' W 118°04'9 8.5
2014-Jul-24 17:33N 33°13' W 118°01'9 9.1
2014-Jul-24 16:33N 33°05' W 117°58'1616.3
2014-Jul-24 15:33N 32°49' W 117°54'1616.4
2014-Jul-24 14:33N 32°33' W 117°50'1615.8
2014-Jul-24 13:33N 32°18' W 117°43'1615.8
2014-Jul-24 12:33N 32°03' W 117°37'1515.5
2014-Jul-24 11:33N 31°48' W 117°31'1515.4
2014-Jul-24 10:33N 31°34' W 117°26'1515.2
2014-Jul-24 09:33N 31°19' W 117°19'1515.2
2014-Jul-24 08:33N 31°05' W 117°13'1515.2
2014-Jul-24 07:33N 30°51' W 117°08'1515.2
2014-Jul-24 06:33N 30°36' W 117°02'1515.2
2014-Jul-24 05:33N 30°22' W 116°56'1514.8
2014-Jul-24 04:33N 30°08' W 116°50'1515.1
2014-Jul-24 03:33N 29°54' W 116°45'1515.3
2014-Jul-24 02:33N 29°39' W 116°39'1515.3
2014-Jul-24 01:33N 29°25' W 116°33'1515.2
2014-Jul-24 00:33N 29°10' W 116°28'1515.1
2014-Jul-23 23:33N 28°56' W 116°22'1615.4
2014-Jul-23 22:30N 28°41' W 116°16'1415.3
2014-Jul-23 21:33N 28°27' W 116°10'1515.4
2014-Jul-23 20:33N 28°13' W 116°05'4815.2
2014-Jul-23 17:26N 27°33' W 115°36'1415.4
2014-Jul-23 16:30N 27°21' W 115°26'1516.1
2014-Jul-23 15:33N 27°09' W 115°16'1716.2
2014-Jul-23 14:29N 26°55' W 115°04'2015.9
2014-Jul-23 13:14N 26°40' W 114°50'  
Track history (hours):
 
Tides and Currents Weather Stations Pressure Air Temp Water Temp Dewpoint Dewpoint Depression Visibility Wind Speed Wind Dir Waves Ship Positions

Northern Highway

Last reported at 2014-Jul-28 04:31 UTC. Time now 2014-Jul-30 00:58 UTC.
Position N 36°33' W 129°31'.

Length 188 m; draft 7.3 m.

Type: Cargo ship. MMSI: 371608000.

Date/timePositionNaut miles runAvg speedWind from/ knotsBaromVisibWave heightAir tempDewpointWater temp
2014-Jul-28 04:31N 36°33' W 129°31'6716.8
2014-Jul-28 00:31N 35°60' W 128°19'1616.4
2014-Jul-27 23:33N 35°52' W 128°02'1816.5
2014-Jul-27 22:27N 35°43' W 127°43'1516.6
2014-Jul-27 21:33N 35°35' W 127°27'1716.6
2014-Jul-27 20:33N 35°26' W 127°10'1616.3
2014-Jul-27 19:33N 35°18' W 126°52'1616.1
2014-Jul-27 18:33N 35°10' W 126°35'1616.3
2014-Jul-27 17:33N 35°01' W 126°19'1616.2
2014-Jul-27 16:33N 34°52' W 126°02'1616.1
2014-Jul-27 15:33N 34°44' W 125°45'1716.2
2014-Jul-27 14:31N 34°35' W 125°27'1515.7
2014-Jul-27 13:33N 34°30' W 125°10'1716.7
2014-Jul-27 12:33N 34°30' W 124°50'1716.6
2014-Jul-27 11:33N 34°30' W 124°30'1716.8
2014-Jul-27 10:33N 34°30' W 124°09'2017.1
2014-Jul-27 09:22N 34°30' W 123°45'1417.2
2014-Jul-27 08:33N 34°30' W 123°28'1717.0
2014-Jul-27 07:33N 34°30' W 123°07'1716.9
2014-Jul-27 06:33N 34°30' W 122°47'1717.0
2014-Jul-27 05:33N 34°30' W 122°26'1716.7
2014-Jul-27 04:33N 34°30' W 122°06'1616.5
2014-Jul-27 03:34N 34°30' W 121°46'1716.4
2014-Jul-27 02:31N 34°30' W 121°25'1716.2
2014-Jul-27 01:28N 34°29' W 121°05'1516.0
2014-Jul-27 00:33N 34°25' W 120°48'1616.0
2014-Jul-26 23:33N 34°21' W 120°29'1716.8
2014-Jul-26 22:34N 34°17' W 120°09'1616.4
2014-Jul-26 21:33N 34°12' W 119°50'1716.7
2014-Jul-26 20:33N 34°08' W 119°31'1414.0
2014-Jul-26 19:33N 34°08' W 119°14'2 1.7
2014-Jul-26 18:32N 34°09' W 119°12'0 0.0
2014-Jul-26 17:32N 34°09' W 119°12'0 0.0
2014-Jul-26 16:32N 34°09' W 119°12'0 0.0
2014-Jul-26 15:32N 34°09' W 119°12'0 0.0
2014-Jul-26 14:32N 34°09' W 119°12'0 0.0
2014-Jul-26 13:32N 34°09' W 119°12'0 0.0
2014-Jul-26 12:33N 34°09' W 119°12'2 1.7
2014-Jul-26 11:31N 34°07' W 119°13'0 0.1
2014-Jul-26 10:31N 34°07' W 119°13'0 0.0
2014-Jul-26 09:31N 34°07' W 119°13'0 0.0
2014-Jul-26 08:31N 34°07' W 119°13'0 0.0
2014-Jul-26 07:31N 34°07' W 119°13'0 0.0
2014-Jul-26 06:25N 34°07' W 119°13'0 0.1
2014-Jul-26 05:28N 34°07' W 119°13'0 0.1
2014-Jul-26 04:31N 34°07' W 119°13'0 0.0
2014-Jul-26 03:31N 34°07' W 119°13'0 0.0
2014-Jul-26 02:31N 34°07' W 119°13'0 0.0
2014-Jul-26 01:31N 34°07' W 119°13'0 0.0
2014-Jul-26 00:31N 34°07' W 119°13'6 6.4
2014-Jul-25 23:33N 34°02' W 119°09'1311.3
2014-Jul-25 22:25N 33°55' W 118°56'1011.3
2014-Jul-25 21:33N 33°50' W 118°46'1111.2
2014-Jul-25 20:33N 33°45' W 118°34'1111.2
2014-Jul-25 19:33N 33°39' W 118°22'9 8.8
2014-Jul-25 18:33N 33°41' W 118°12'4 3.5
2014-Jul-25 17:33N 33°44' W 118°13'0 0.0
2014-Jul-25 16:33N 33°44' W 118°13'0 0.0
2014-Jul-25 15:33N 33°44' W 118°13'0 0.0
2014-Jul-25 14:33N 33°44' W 118°13'0 0.0
2014-Jul-25 13:33N 33°44' W 118°13'0 0.0
2014-Jul-25 12:33N 33°44' W 118°13'0 0.0
2014-Jul-25 11:30N 33°44' W 118°13'0 0.0
2014-Jul-25 10:33N 33°44' W 118°13'0 0.1
2014-Jul-25 09:33N 33°44' W 118°13'0 0.0
2014-Jul-25 08:33N 33°44' W 118°13'0 0.0
2014-Jul-25 07:30N 33°44' W 118°13'0 0.0
2014-Jul-25 06:30N 33°44' W 118°13'0 0.0
2014-Jul-25 05:30N 33°44' W 118°13'0 0.1
2014-Jul-25 04:33N 33°44' W 118°13'0 0.0
2014-Jul-25 03:33N 33°44' W 118°13'0 0.0
2014-Jul-25 02:33N 33°44' W 118°13'0 0.0
2014-Jul-25 01:33N 33°44' W 118°13'0 0.1
2014-Jul-25 00:33N 33°44' W 118°13'0 0.1
2014-Jul-24 23:33N 33°44' W 118°13'0 0.0
2014-Jul-24 22:33N 33°44' W 118°13'0 0.2
2014-Jul-24 21:33N 33°44' W 118°13'7 6.9
2014-Jul-24 20:33N 33°37' W 118°10'9 8.5
2014-Jul-24 19:33N 33°29' W 118°07'8 8.2
2014-Jul-24 18:33N 33°22' W 118°04'9 8.5
2014-Jul-24 17:33N 33°13' W 118°01'9 9.1
2014-Jul-24 16:33N 33°05' W 117°58'1616.3
2014-Jul-24 15:33N 32°49' W 117°54'1616.4
2014-Jul-24 14:33N 32°33' W 117°50'1615.8
2014-Jul-24 13:33N 32°18' W 117°43'1615.8
2014-Jul-24 12:33N 32°03' W 117°37'1515.5
2014-Jul-24 11:33N 31°48' W 117°31'1515.4
2014-Jul-24 10:33N 31°34' W 117°26'1515.2
2014-Jul-24 09:33N 31°19' W 117°19'1515.2
2014-Jul-24 08:33N 31°05' W 117°13'1515.2
2014-Jul-24 07:33N 30°51' W 117°08'1515.2
2014-Jul-24 06:33N 30°36' W 117°02'1515.2
2014-Jul-24 05:33N 30°22' W 116°56'1514.8
2014-Jul-24 04:33N 30°08' W 116°50'1515.1
2014-Jul-24 03:33N 29°54' W 116°45'1515.3
2014-Jul-24 02:33N 29°39' W 116°39'1515.3
2014-Jul-24 01:33N 29°25' W 116°33'1515.2
2014-Jul-24 00:33N 29°10' W 116°28'1515.1
2014-Jul-23 23:33N 28°56' W 116°22'1615.4
2014-Jul-23 22:30N 28°41' W 116°16'1415.3
2014-Jul-23 21:33N 28°27' W 116°10'1515.4
2014-Jul-23 20:33N 28°13' W 116°05'4815.2
2014-Jul-23 17:26N 27°33' W 115°36'1415.4
2014-Jul-23 16:30N 27°21' W 115°26'1516.1
2014-Jul-23 15:33N 27°09' W 115°16'1716.2
2014-Jul-23 14:29N 26°55' W 115°04'2015.9
2014-Jul-23 13:14N 26°40' W 114°50'  

Dump ship's entire track history